Latest Weather Observations for Bellambi

IDN60901

Issued at 11:42 pm EDT Wednesday 4 March 2015 (issued every 10 minutes, with the page automatically refreshed every 10 minutes)

About weather observations | Map of Sydney area stations | Latest observations for Sydney area | Other Formats
Station Details ID: 068228 Name: BELLAMBI AWS Lat: -34.37 Lon: 150.93 Height: 10.0 m
Data from the previous 72 hours. | See also: Recent months at Bellambi
Date/Time
EDT
Tmp

°C
App
Tmp
°C
Dew
Point
°C
Rel
Hum
%
Delta-T

°C
Wind Press
QNH
hPa
Press
MSL
hPa
Rain
since
9 am
mm
Dir
 
Spd
km/h
Gust
km/h
Spd
kts
Gust
kts
04/11:30pm 22.3 22.7 19.8 86 1.6 NNW 17 20 9 11 - - 0.0
04/11:00pm 22.0 25.6 19.7 87 1.5 CALM 0 0 0 0 - - 0.0
04/10:30pm 21.8 23.6 19.5 87 1.5 WSW 9 11 5 6 - - 0.0
04/10:00pm 22.1 24.4 19.8 87 1.5 WSW 7 9 4 5 - - 0.0
04/09:30pm 22.6 26.5 20.3 87 1.5 CALM 0 0 0 0 - - 0.0
04/09:00pm 22.9 26.9 20.6 87 1.5 CALM 0 0 0 0 - - 0.0
04/08:30pm 23.1 25.5 20.8 87 1.5 N 9 13 5 7 - - 0.0
04/08:00pm 23.2 26.0 20.9 87 1.5 N 7 9 4 5 - - 0.0
04/07:30pm 23.3 25.8 21.0 87 1.5 N 9 11 5 6 - - 0.0
04/07:00pm 23.5 26.0 21.0 86 1.6 N 9 11 5 6 - - 0.0
04/06:30pm 23.9 26.1 21.2 85 1.8 NNE 11 15 6 8 - - 0.0
04/05:42pm 23.9 24.5 21.0 84 1.9 NE 19 24 10 13 - - 0.0
04/05:30pm 24.0 25.7 20.9 83 2.0 N 13 19 7 10 - - 0.0
04/05:12pm 23.9 25.6 20.2 80 2.4 N 11 15 6 8 - - 0.0
04/05:00pm 24.2 26.0 20.3 79 2.5 N 11 13 6 7 - - 0.0
04/04:30pm 24.3 26.1 20.4 79 2.5 N 11 15 6 8 - - 0.0
04/04:00pm 24.1 25.7 20.0 78 2.6 N 11 13 6 7 - - 0.0
04/03:30pm 24.2 26.1 19.7 76 2.9 N 9 11 5 6 - - 0.0
04/03:00pm 24.0 25.8 19.5 76 2.9 N 9 11 5 6 - - 0.0
04/02:30pm 24.1 26.4 19.8 77 2.8 NE 7 9 4 5 - - 0.0
04/02:00pm 24.2 25.8 19.9 77 2.8 NE 11 13 6 7 - - 0.0
04/01:30pm 24.4 26.6 20.3 78 2.7 ENE 9 11 5 6 - - 0.0
04/01:00pm 23.7 25.4 19.4 77 2.8 E 9 11 5 6 - - 0.0
04/12:30pm 23.0 24.7 18.1 74 3.1 ESE 6 9 3 5 - - 0.0
04/12:00pm 23.7 25.2 19.0 75 3.0 ENE 9 11 5 6 - - 0.0
04/11:30am 23.1 24.8 18.6 76 2.8 ENE 7 9 4 5 - - 0.0
04/11:00am 23.1 24.8 18.6 76 2.8 ENE 7 9 4 5 - - 0.0
04/10:30am 23.4 25.0 19.1 77 2.7 E 9 11 5 6 - - 0.0
04/10:00am 22.7 24.5 18.7 78 2.5 SE 7 7 4 4 - - 0.0
04/09:30am 21.8 23.0 18.2 80 2.2 S 9 9 5 5 - - 0.0
04/09:00am 21.3 20.9 18.1 82 2.0 S 17 19 9 10 - - 0.0
04/08:30am 21.2 20.9 18.2 83 1.9 S 17 19 9 10 - - 0.0
04/08:00am 21.0 21.9 18.4 85 1.6 SSE 11 13 6 7 - - 0.0
04/07:30am 20.8 23.6 18.0 84 1.7 CALM 0 0 0 0 - - 0.0
04/07:00am 20.7 23.5 17.9 84 1.7 CALM 0 0 0 0 - - 0.0
04/06:30am 20.6 23.3 17.8 84 1.7 CALM 0 0 0 0 - - 0.0
04/05:30am 20.7 22.3 17.9 84 1.7 WSW 6 7 3 4 - - 0.0
04/05:00am 20.7 22.1 17.9 84 1.7 SW 7 9 4 5 - - 0.0
04/04:30am 20.7 22.3 17.9 84 1.7 WSW 6 7 3 4 - - 0.0
04/04:00am 20.6 23.2 17.6 83 1.8 CALM 0 0 0 0 - - 0.0
04/03:30am 20.7 23.4 17.7 83 1.8 CALM 0 0 0 0 - - 0.0
04/03:00am 20.8 23.5 17.8 83 1.9 CALM 0 6 0 3 - - 0.0
04/02:30am 20.7 21.6 17.5 82 2.0 SSW 9 11 5 6 - - 0.0
04/02:00am 21.0 22.2 17.4 80 2.2 S 7 11 4 6 - - 0.0
04/01:30am 21.3 23.9 17.5 79 2.3 CALM 0 6 0 3 - - 0.0
04/01:00am 21.3 22.3 17.7 80 2.2 SSW 9 13 5 7 - - 0.0
04/12:30am 21.3 22.7 17.7 80 2.2 SSW 7 13 4 7 - - 0.0
 
Date/Time
EDT
Tmp

°C
App
Tmp
°C
Dew
Point
°C
Rel
Hum
%
Delta-T

°C
Wind Press
QNH
hPa
Press
MSL
hPa
Rain
since
9 am
mm
Dir
 
Spd
km/h
Gust
km/h
Spd
kts
Gust
kts
03/11:30pm 21.3 20.2 17.7 80 2.2 SSW 20 24 11 13 - - 0.0
03/11:00pm 21.4 20.1 18.2 82 2.0 S 22 26 12 14 - - 0.0
03/10:30pm 21.6 20.5 18.6 83 1.9 S 22 24 12 13 - - 0.0
03/10:00pm 21.7 23.3 18.3 81 2.1 SW 7 7 4 4 - - 0.0
03/09:30pm 21.9 24.8 18.3 80 2.2 CALM 0 6 0 3 - - 0.0
03/09:00pm 22.1 25.2 18.7 81 2.1 CALM 0 0 0 0 - - 0.0
03/08:30pm 22.2 24.0 18.4 79 2.4 ENE 6 9 3 5 - - 0.0
03/08:00pm 22.3 25.2 18.3 78 2.5 CALM 0 0 0 0 - - 0.0
03/07:30pm 22.5 25.4 18.3 77 2.6 CALM 0 0 0 0 - - 0.0
03/07:00pm 22.5 24.0 18.1 76 2.7 NNE 7 9 4 5 - - 0.0
03/06:30pm 22.7 23.4 18.0 75 2.9 NE 11 13 6 7 - - 0.0
03/06:00pm 23.0 23.7 17.9 73 3.2 NE 11 13 6 7 - - 0.0
03/05:30pm 23.5 23.8 17.9 71 3.5 NE 13 17 7 9 - - 0.0
03/05:00pm 23.2 22.9 17.4 70 3.6 NNE 15 19 8 10 - - 0.0
03/04:30pm 24.0 23.8 17.5 67 4.0 NNE 15 20 8 11 - - 0.0
03/04:00pm 23.6 22.3 16.9 66 4.1 NE 19 20 10 11 - - 0.0
03/03:30pm 22.9 21.6 16.7 68 3.8 NNE 19 24 10 13 - - 0.0
03/03:00pm 24.5 23.7 17.0 63 4.6 NNE 17 24 9 13 - - 0.0
03/02:30pm 24.6 23.4 17.6 65 4.4 NE 20 24 11 13 - - 0.0
03/02:00pm 24.6 23.5 17.8 66 4.3 NE 20 26 11 14 - - 0.0
03/01:30pm 24.2 21.4 17.2 65 4.3 NE 28 32 15 17 - - 0.0
03/01:00pm 24.1 21.1 17.8 68 3.9 ENE 30 35 16 19 - - 0.0
03/12:30pm 24.7 23.6 18.6 69 3.9 ENE 22 26 12 14 - - 0.0
03/12:00pm 24.5 22.8 17.2 63 4.5 NE 22 26 12 14 - - 0.0
03/11:30am 24.5 23.2 17.2 63 4.5 NE 20 24 11 13 - - 0.0
03/11:00am 24.3 23.2 16.3 61 4.9 NE 17 22 9 12 - - 0.0
03/10:30am 23.7 22.7 14.7 57 5.3 NNE 13 20 7 11 - - 0.0
03/10:00am 22.9 21.2 14.7 60 4.9 N 17 26 9 14 - - 0.0
03/09:30am 22.2 20.9 14.8 63 4.4 N 15 22 8 12 - - 0.0
03/09:00am 21.4 19.4 13.8 62 4.4 N 17 26 9 14 - - 0.0
03/08:30am 21.0 18.4 13.9 64 4.1 N 20 28 11 15 - - 0.0
03/08:00am 20.1 17.1 14.7 71 3.2 NNW 24 28 13 15 - - 0.0
03/07:30am 19.6 17.1 14.2 71 3.1 NNW 20 28 11 15 - - 0.0
03/07:00am 19.0 16.7 14.1 73 2.8 NW 19 24 10 13 - - 0.0
03/06:30am 18.5 16.9 13.8 74 2.7 NW 15 17 8 9 - - 0.0
03/06:00am 18.6 17.3 13.7 73 2.8 NW 13 19 7 10 - - 0.0
03/05:30am 18.6 17.0 13.9 74 2.7 NW 15 19 8 10 - - 0.0
03/05:00am 18.8 17.0 13.4 71 3.1 NW 15 17 8 9 - - 0.0
03/04:30am 18.8 17.4 13.4 71 3.1 NW 13 17 7 9 - - 0.0
03/04:00am 19.2 17.1 13.6 70 3.2 NW 17 20 9 11 - - 0.0
03/03:30am 19.9 18.8 14.3 70 3.2 N 13 17 7 9 - - 0.0
03/03:00am 20.0 18.4 13.9 68 3.5 NNW 15 19 8 10 - - 0.0
03/02:30am 20.2 18.3 14.1 68 3.5 NNW 17 19 9 10 - - 0.0
03/02:00am 20.3 18.4 14.2 68 3.5 NNW 17 20 9 11 - - 0.0
03/01:30am 20.6 18.4 14.3 67 3.7 NNW 19 22 10 12 - - 0.0
03/01:00am 20.5 19.1 14.4 68 3.6 N 15 19 8 10 - - 0.0
03/12:30am 20.5 18.2 14.2 67 3.7 N 19 22 10 12 - - 0.0
03/12:00am 20.4 18.9 14.3 68 3.5 NNW 15 20 8 11 - - 0.0
 
Date/Time
EDT
Tmp

°C
App
Tmp
°C
Dew
Point
°C
Rel
Hum
%
Delta-T

°C
Wind Press
QNH
hPa
Press
MSL
hPa
Rain
since
9 am
mm
Dir
 
Spd
km/h
Gust
km/h
Spd
kts
Gust
kts
02/11:30pm 20.6 19.5 14.3 67 3.7 NNW 13 15 7 8 - - 0.0
02/11:00pm 20.5 19.4 14.4 68 3.6 NNW 13 15 7 8 - - 0.0
02/10:30pm 20.3 19.3 14.7 70 3.3 NNW 13 15 7 8 - - 0.0
02/10:00pm 20.5 19.7 15.1 71 3.2 NNW 13 15 7 8 - - 0.0
02/09:30pm 20.6 19.9 15.4 72 3.1 NNW 13 15 7 8 - - 0.0
02/09:00pm 20.8 21.1 16.0 74 2.9 NNW 9 11 5 6 - - 0.0
02/08:30pm 20.7 21.6 16.1 75 2.8 NW 6 7 3 4 - - 0.0
02/08:00pm 20.7 22.7 15.9 74 2.9 CALM 0 0 0 0 - - 0.0
02/07:30pm 20.8 22.7 15.8 73 3.0 CALM 0 0 0 0 - - 0.0
02/07:00pm 21.1 23.1 15.9 72 3.1 CALM 0 0 0 0 - - 0.0
02/06:30pm 21.3 22.0 16.0 72 3.2 SSW 7 9 4 5 - - 0.0
02/06:00pm 21.4 22.1 16.1 72 3.2 SSW 7 11 4 6 - - 0.0
02/05:30pm 21.4 22.0 15.9 71 3.3 SSW 7 11 4 6 - - 0.0
02/05:00pm 21.6 21.9 16.1 71 3.3 S 9 11 5 6 - - 0.0
02/04:30pm 21.3 21.4 15.6 70 3.4 S 9 13 5 7 - - 0.0
02/04:00pm 21.4 21.2 15.7 70 3.4 S 11 17 6 9 - - 0.0
02/03:30pm 21.2 20.5 15.5 70 3.4 SSW 13 17 7 9 - - 0.0
02/03:00pm 21.0 19.9 15.3 70 3.4 SSW 15 19 8 10 - - 0.0
02/02:30pm 21.1 19.6 15.2 69 3.5 S 17 19 9 10 - - 0.0
02/02:00pm 21.5 20.0 15.3 68 3.7 S 17 22 9 12 - - 0.0
02/01:30pm 21.1 19.1 15.0 68 3.6 S 19 22 10 12 - - 0.0
02/01:00pm 21.1 18.7 15.4 70 3.4 S 22 26 12 14 - - 0.0
02/12:30pm 20.6 17.6 14.7 69 3.5 S 24 30 13 16 - - 0.0
02/12:00pm 20.8 17.8 14.9 69 3.5 S 24 28 13 15 - - 0.0
02/11:30am 20.7 17.9 14.4 67 3.7 S 22 28 12 15 - - 0.0
02/11:00am 20.9 18.3 14.8 68 3.6 S 22 28 12 15 - - 0.0
02/10:30am 20.6 16.9 13.8 65 3.9 S 26 32 14 17 - - 0.0
02/10:00am 21.0 18.5 14.2 65 4.0 SSW 20 26 11 14 - - 0.0
02/09:30am 20.4 17.7 13.4 64 4.0 SW 20 26 11 14 - - 0.0
02/09:00am 19.6 15.9 12.8 65 3.8 SSW 24 32 13 17 - - 19.4
02/08:30am 19.1 15.0 12.6 66 3.6 SSW 26 37 14 20 - - 19.4
02/08:00am 18.3 15.2 12.1 67 3.4 SW 20 28 11 15 - - 19.4
02/07:30am 17.6 14.4 11.8 69 3.2 SW 20 26 11 14 - - 19.4
02/07:00am 17.2 14.1 11.7 70 3.0 SW 19 24 10 13 - - 19.4
02/06:30am 17.2 13.9 11.5 69 3.1 SW 20 28 11 15 - - 19.4
02/06:00am 17.0 14.2 11.3 69 3.1 SW 17 22 9 12 - - 19.4
02/05:30am 16.9 14.1 11.2 69 3.1 SW 17 22 9 12 - - 19.4
02/05:00am 17.1 14.3 11.2 68 3.2 SW 17 22 9 12 - - 19.4
02/04:30am 17.1 13.9 11.2 68 3.2 SW 19 22 10 12 - - 19.4
02/04:00am 17.1 14.2 10.9 67 3.3 SW 17 24 9 13 - - 19.4
02/03:30am 17.7 14.8 11.0 65 3.6 SW 17 22 9 12 - - 19.4
02/03:00am 18.3 14.6 11.4 64 3.8 SW 22 33 12 18 - - 19.4
02/02:30am 18.8 13.5 12.5 67 3.5 SSW 32 43 17 23 - - 19.4
02/02:00am 19.1 13.8 13.1 68 3.4 SSW 33 43 18 23 - - 19.4
02/01:30am 19.8 13.6 13.7 68 3.5 SSW 39 48 21 26 - - 19.4
02/01:00am 20.4 12.6 13.1 63 4.2 S 46 56 25 30 - - 19.4
02/12:30am 20.5 12.8 13.2 63 4.2 S 46 57 25 31 - - 19.4
02/12:00am 20.6 12.1 13.1 62 4.3 S 50 59 27 32 - - 19.4

Latest Capital City Observations: Canberra | Sydney | Melbourne | Brisbane | Adelaide | Perth | Hobart | Darwin

Other Formats:

Comma delimited format used in spreadsheet applications
http://www.bom.gov.au/fwo/IDN60901/IDN60901.94749.axf

JavaScript Object Notation format (JSON) in row-major order
http://www.bom.gov.au/fwo/IDN60901/IDN60901.94749.json